createdAt,value
2018-09-18T00:00:05.586Z,101227.98
2018-09-18T00:00:17.353Z,101228.37
2018-09-18T00:00:29.113Z,101225.76
2018-09-18T00:00:40.862Z,101223.14
2018-09-18T00:00:52.611Z,101227.06
2018-09-18T00:01:04.376Z,101223.50
2018-09-18T00:01:16.146Z,101230.98
2018-09-18T00:01:27.918Z,101227.06
2018-09-18T00:01:39.692Z,101229.29
2018-09-18T00:01:51.446Z,101225.76
2018-09-18T00:02:03.193Z,101230.59
2018-09-18T00:02:14.957Z,101229.67
2018-09-18T00:02:26.699Z,101229.29
2018-09-18T00:02:38.465Z,101225.76
2018-09-18T00:02:50.222Z,101229.67
2018-09-18T00:03:02.001Z,101228.37
2018-09-18T00:03:13.990Z,101228.37
2018-09-18T00:03:25.740Z,101224.45
2018-09-18T00:03:37.514Z,101229.67
2018-09-18T00:03:49.294Z,101227.06
2018-09-18T00:04:01.037Z,101229.29
2018-09-18T00:04:12.781Z,101227.59
2018-09-18T00:04:24.534Z,101227.59
2018-09-18T00:04:36.280Z,101229.29
2018-09-18T00:04:48.033Z,101222.76
2018-09-18T00:04:59.813Z,101223.14
2018-09-18T00:05:11.571Z,101230.59
2018-09-18T00:05:23.335Z,101228.37
2018-09-18T00:05:35.089Z,101227.59
2018-09-18T00:05:46.853Z,101225.76
2018-09-18T00:05:58.594Z,101222.76
2018-09-18T00:06:10.338Z,101224.06
2018-09-18T00:06:22.110Z,101224.45
2018-09-18T00:06:33.880Z,101230.98
2018-09-18T00:06:45.624Z,101225.76
2018-09-18T00:06:57.383Z,101225.38
2018-09-18T00:07:09.134Z,101223.14
2018-09-18T00:07:20.891Z,101223.14
2018-09-18T00:07:32.637Z,101218.45
2018-09-18T00:07:44.469Z,101221.45
2018-09-18T00:07:56.225Z,101222.76
2018-09-18T00:08:07.980Z,101224.06
2018-09-18T00:08:19.717Z,101224.98
2018-09-18T00:08:31.484Z,101221.98
2018-09-18T00:08:43.226Z,101226.29
2018-09-18T00:08:55.036Z,101215.31
2018-09-18T00:09:06.769Z,101222.76
2018-09-18T00:09:18.535Z,101221.06
2018-09-18T00:09:30.283Z,101221.84
2018-09-18T00:09:42.026Z,101219.23
2018-09-18T00:09:53.762Z,101222.76
2018-09-18T00:10:05.506Z,101217.92
2018-09-18T00:10:17.260Z,101220.15
2018-09-18T00:10:29.026Z,101221.84
2018-09-18T00:10:40.780Z,101220.53
2018-09-18T00:10:52.543Z,101224.45
2018-09-18T00:11:04.302Z,101222.58
2018-09-18T00:11:16.070Z,101221.84
2018-09-18T00:11:27.828Z,101221.27
2018-09-18T00:11:39.746Z,101217.92
2018-09-18T00:11:51.498Z,101212.70
2018-09-18T00:12:03.256Z,101216.97
2018-09-18T00:12:15.010Z,101216.23
2018-09-18T00:12:26.751Z,101220.88
2018-09-18T00:12:38.485Z,101219.58
2018-09-18T00:12:50.237Z,101216.05
2018-09-18T00:13:01.985Z,101219.23
2018-09-18T00:13:13.735Z,101215.66
2018-09-18T00:13:25.479Z,101222.76
2018-09-18T00:13:37.238Z,101220.15
2018-09-18T00:13:49.011Z,101220.88
2018-09-18T00:14:00.785Z,101220.15
2018-09-18T00:14:12.542Z,101218.27
2018-09-18T00:14:24.291Z,101215.66
2018-09-18T00:14:36.042Z,101221.45
2018-09-18T00:14:47.799Z,101216.97
2018-09-18T00:14:59.545Z,101220.35
2018-09-18T00:15:11.311Z,101217.92
2018-09-18T00:15:23.060Z,101216.61
2018-09-18T00:15:34.820Z,101216.61
2018-09-18T00:15:46.728Z,101217.92
2018-09-18T00:15:58.480Z,101220.53
2018-09-18T00:16:10.229Z,101221.66
2018-09-18T00:16:21.984Z,101216.97
2018-09-18T00:16:33.932Z,101217.35
2018-09-18T00:16:45.672Z,101215.66
2018-09-18T00:16:57.414Z,101219.23
2018-09-18T00:17:09.170Z,101213.44
2018-09-18T00:17:20.951Z,101214.74
2018-09-18T00:17:32.708Z,101218.84
2018-09-18T00:17:44.455Z,101216.44
2018-09-18T00:17:56.207Z,101223.88
2018-09-18T00:18:07.967Z,101217.35
2018-09-18T00:18:19.720Z,101216.05
2018-09-18T00:18:31.667Z,101219.58
2018-09-18T00:18:43.597Z,101214.36
2018-09-18T00:18:55.343Z,101215.31
2018-09-18T00:19:07.168Z,101221.45
2018-09-18T00:19:18.922Z,101214.74
2018-09-18T00:19:30.659Z,101216.97
2018-09-18T00:19:42.428Z,101215.31
2018-09-18T00:19:54.183Z,101216.61
2018-09-18T00:20:05.948Z,101218.27
2018-09-18T00:20:17.703Z,101216.97
2018-09-18T00:20:29.460Z,101215.66
2018-09-18T00:20:41.200Z,101217.92
2018-09-18T00:20:52.979Z,101216.05
2018-09-18T00:21:04.722Z,101214.74
2018-09-18T00:21:16.471Z,101214.00
2018-09-18T00:21:28.228Z,101214.74
2018-09-18T00:21:39.983Z,101214.74
2018-09-18T00:21:51.734Z,101213.44
2018-09-18T00:22:03.484Z,101210.83
2018-09-18T00:22:15.235Z,101213.05
2018-09-18T00:22:26.996Z,101216.05
2018-09-18T00:22:38.757Z,101213.82
2018-09-18T00:22:50.536Z,101214.36
2018-09-18T00:23:02.289Z,101215.31
2018-09-18T00:23:14.075Z,101216.61
2018-09-18T00:23:25.856Z,101213.44
2018-09-18T00:23:37.624Z,101215.31
2018-09-18T00:23:49.390Z,101215.66
2018-09-18T00:24:01.151Z,101216.05
2018-09-18T00:24:12.948Z,101210.83
2018-09-18T00:24:24.723Z,101210.83
2018-09-18T00:24:36.472Z,101209.13
2018-09-18T00:24:48.215Z,101216.97
2018-09-18T00:24:59.948Z,101212.70
2018-09-18T00:25:11.692Z,101214.36
2018-09-18T00:25:23.442Z,101208.98
2018-09-18T00:25:35.737Z,101208.22
2018-09-18T00:25:47.485Z,101213.82
2018-09-18T00:25:59.230Z,101208.59
2018-09-18T00:26:10.991Z,101212.52
2018-09-18T00:26:22.748Z,101211.74
2018-09-18T00:26:34.494Z,101211.74
2018-09-18T00:26:46.243Z,101216.05
2018-09-18T00:26:57.984Z,101208.22
2018-09-18T00:27:09.748Z,101212.52
2018-09-18T00:27:21.502Z,101213.44
2018-09-18T00:27:33.254Z,101209.91
2018-09-18T00:27:45.008Z,101213.44
2018-09-18T00:27:56.753Z,101212.52
2018-09-18T00:28:08.500Z,101210.44
2018-09-18T00:28:20.247Z,101213.05
2018-09-18T00:28:32.034Z,101210.44
2018-09-18T00:28:43.801Z,101207.83
2018-09-18T00:28:55.577Z,101209.52
2018-09-18T00:29:07.349Z,101214.00
2018-09-18T00:29:19.093Z,101206.91
2018-09-18T00:29:30.847Z,101205.98
2018-09-18T00:29:42.598Z,101211.01
2018-09-18T00:29:54.380Z,101210.83
2018-09-18T00:30:06.147Z,101207.83
2018-09-18T00:30:17.890Z,101205.60
2018-09-18T00:30:29.657Z,101209.52
2018-09-18T00:30:41.403Z,101210.44
2018-09-18T00:30:53.194Z,101213.05
2018-09-18T00:31:04.928Z,101209.91
2018-09-18T00:31:16.680Z,101209.13
2018-09-18T00:31:28.430Z,101208.22
2018-09-18T00:31:40.190Z,101209.52
2018-09-18T00:31:51.938Z,101207.30
2018-09-18T00:32:03.694Z,101203.37
2018-09-18T00:32:15.459Z,101212.70
2018-09-18T00:32:27.218Z,101205.22
2018-09-18T00:32:38.970Z,101211.74
2018-09-18T00:32:50.748Z,101209.52
2018-09-18T00:33:02.504Z,101214.92
2018-09-18T00:33:14.260Z,101207.48
2018-09-18T00:33:26.022Z,101207.83
2018-09-18T00:33:37.784Z,101209.70
2018-09-18T00:33:49.519Z,101207.83
2018-09-18T00:34:01.272Z,101202.60
2018-09-18T00:34:13.023Z,101208.59
2018-09-18T00:34:24.794Z,101204.69
2018-09-18T00:34:36.547Z,101213.05
2018-09-18T00:34:48.311Z,101207.30
2018-09-18T00:35:00.058Z,101205.22
2018-09-18T00:35:11.798Z,101203.91
2018-09-18T00:35:23.562Z,101202.60
2018-09-18T00:35:35.326Z,101206.52
2018-09-18T00:35:47.078Z,101203.91
2018-09-18T00:35:58.835Z,101204.30
2018-09-18T00:36:10.606Z,101202.98
2018-09-18T00:36:22.363Z,101202.45
2018-09-18T00:36:34.127Z,101204.30
2018-09-18T00:36:45.882Z,101202.07
2018-09-18T00:36:57.624Z,101200.38
2018-09-18T00:37:09.373Z,101197.77
2018-09-18T00:37:21.287Z,101204.30
2018-09-18T00:37:33.045Z,101203.91
2018-09-18T00:37:44.785Z,101200.38
2018-09-18T00:37:56.556Z,101201.69
2018-09-18T00:38:08.317Z,101203.37
2018-09-18T00:38:20.082Z,101199.45
2018-09-18T00:38:31.844Z,101199.98
2018-09-18T00:38:43.596Z,101195.16
2018-09-18T00:38:55.333Z,101198.16
2018-09-18T00:39:07.073Z,101198.16
2018-09-18T00:39:18.831Z,101197.77
2018-09-18T00:39:30.614Z,101197.23
2018-09-18T00:39:42.346Z,101204.69
2018-09-18T00:39:54.089Z,101197.23
2018-09-18T00:40:05.838Z,101196.84
2018-09-18T00:40:17.588Z,101204.30
2018-09-18T00:40:29.335Z,101195.01
2018-09-18T00:40:41.094Z,101193.31
2018-09-18T00:40:52.843Z,101197.77
2018-09-18T00:41:04.594Z,101197.62
2018-09-18T00:41:16.349Z,101200.23
2018-09-18T00:41:28.113Z,101195.01
2018-09-18T00:41:39.864Z,101196.84
2018-09-18T00:41:51.624Z,101195.92
2018-09-18T00:42:03.395Z,101189.02
2018-09-18T00:42:15.151Z,101194.23
2018-09-18T00:42:26.903Z,101189.02
2018-09-18T00:42:38.688Z,101189.40
2018-09-18T00:42:50.526Z,101193.70
2018-09-18T00:43:02.370Z,101196.31
2018-09-18T00:43:14.102Z,101189.40
2018-09-18T00:43:25.859Z,101188.09
2018-09-18T00:43:37.598Z,101189.40
2018-09-18T00:43:49.353Z,101189.02
2018-09-18T00:44:01.102Z,101188.09
2018-09-18T00:44:12.851Z,101190.70
2018-09-18T00:44:24.611Z,101191.62
2018-09-18T00:44:36.400Z,101189.40
2018-09-18T00:44:48.184Z,101188.09
2018-09-18T00:45:01.718Z,101185.48
2018-09-18T00:45:13.461Z,101189.78
2018-09-18T00:45:25.214Z,101188.48
2018-09-18T00:45:36.950Z,101190.70
2018-09-18T00:45:48.707Z,101185.48
2018-09-18T00:46:00.471Z,101189.78
2018-09-18T00:46:12.538Z,101185.48
2018-09-18T00:46:24.288Z,101191.09
2018-09-18T00:46:36.034Z,101190.31
2018-09-18T00:46:47.780Z,101186.78
2018-09-18T00:46:59.527Z,101184.17
2018-09-18T00:47:11.311Z,101186.78
2018-09-18T00:47:23.075Z,101187.56
2018-09-18T00:47:34.814Z,101188.86
2018-09-18T00:47:46.563Z,101185.87
2018-09-18T00:47:58.317Z,101189.02
2018-09-18T00:48:10.089Z,101185.09
2018-09-18T00:48:21.847Z,101187.17
2018-09-18T00:48:33.587Z,101189.78
2018-09-18T00:48:45.341Z,101190.55
2018-09-18T00:48:57.087Z,101192.39
2018-09-18T00:49:08.848Z,101189.40
2018-09-18T00:49:20.598Z,101182.34
2018-09-18T00:49:32.344Z,101189.78
2018-09-18T00:49:44.135Z,101187.56
2018-09-18T00:49:55.907Z,101188.09
2018-09-18T00:50:07.671Z,101184.56
2018-09-18T00:50:19.417Z,101187.17
2018-09-18T00:50:31.323Z,101188.48
2018-09-18T00:50:43.076Z,101182.87
2018-09-18T00:50:54.830Z,101184.56
2018-09-18T00:51:06.584Z,101188.86
2018-09-18T00:51:18.410Z,101188.48
2018-09-18T00:51:30.154Z,101184.17
2018-09-18T00:51:41.915Z,101180.64
2018-09-18T00:51:53.660Z,101188.48
2018-09-18T00:52:05.423Z,101187.70
2018-09-18T00:52:17.165Z,101184.56
2018-09-18T00:52:28.912Z,101178.95
2018-09-18T00:52:40.659Z,101187.70
2018-09-18T00:52:52.413Z,101183.78
2018-09-18T00:53:04.164Z,101185.48
2018-09-18T00:53:15.935Z,101185.48
2018-09-18T00:53:27.718Z,101186.64
2018-09-18T00:53:39.470Z,101188.48
2018-09-18T00:53:51.239Z,101178.95
2018-09-18T00:54:02.992Z,101186.78
2018-09-18T00:54:14.759Z,101184.17
2018-09-18T00:54:26.537Z,101187.17
2018-09-18T00:54:38.315Z,101189.78
2018-09-18T00:54:50.108Z,101184.17
2018-09-18T00:55:01.874Z,101182.34
2018-09-18T00:55:13.626Z,101188.09
2018-09-18T00:55:25.606Z,101186.02
2018-09-18T00:55:37.355Z,101186.40
2018-09-18T00:55:49.150Z,101184.17
2018-09-18T00:56:00.908Z,101187.70
2018-09-18T00:56:12.682Z,101189.40
2018-09-18T00:56:24.426Z,101184.56
2018-09-18T00:56:36.458Z,101182.34
2018-09-18T00:56:48.215Z,101185.09
2018-09-18T00:56:59.954Z,101185.48
2018-09-18T00:57:11.707Z,101184.95
2018-09-18T00:57:23.483Z,101182.72
2018-09-18T00:57:35.234Z,101189.02
2018-09-18T00:57:47.016Z,101186.78
2018-09-18T00:57:58.750Z,101179.72
2018-09-18T00:58:10.511Z,101181.95
2018-09-18T00:58:22.265Z,101186.40
2018-09-18T00:58:34.022Z,101189.02
2018-09-18T00:58:45.775Z,101181.56
2018-09-18T00:58:57.521Z,101184.56
2018-09-18T00:59:09.269Z,101186.78
2018-09-18T00:59:21.028Z,101185.48
2018-09-18T00:59:32.778Z,101178.03
2018-09-18T00:59:44.513Z,101185.48
2018-09-18T00:59:56.299Z,101185.87
2018-09-18T01:00:08.054Z,101185.48
2018-09-18T01:00:19.817Z,101182.48
2018-09-18T01:00:31.700Z,101181.17
2018-09-18T01:00:43.447Z,101179.87
2018-09-18T01:00:55.230Z,101185.09
2018-09-18T01:01:06.965Z,101178.03
2018-09-18T01:01:18.731Z,101181.17
2018-09-18T01:01:30.495Z,101175.42
2018-09-18T01:01:42.239Z,101179.34
2018-09-18T01:01:53.984Z,101178.95
2018-09-18T01:02:05.744Z,101176.72
2018-09-18T01:02:17.511Z,101181.03
2018-09-18T01:02:29.254Z,101177.11
2018-09-18T01:02:41.009Z,101175.80
2018-09-18T01:02:52.783Z,101175.66
2018-09-18T01:03:04.530Z,101173.73
2018-09-18T01:03:16.288Z,101175.42
2018-09-18T01:03:28.034Z,101175.80
2018-09-18T01:03:39.807Z,101173.58
2018-09-18T01:03:51.572Z,101177.50
2018-09-18T01:04:03.331Z,101170.44
2018-09-18T01:04:15.074Z,101175.80
2018-09-18T01:04:26.831Z,101178.03
2018-09-18T01:04:38.589Z,101172.27
2018-09-18T01:04:50.350Z,101180.64
2018-09-18T01:05:02.128Z,101177.11
2018-09-18T01:05:14.311Z,101178.42
2018-09-18T01:05:26.053Z,101178.42
2018-09-18T01:05:37.828Z,101178.42
2018-09-18T01:05:49.595Z,101178.42
2018-09-18T01:06:01.355Z,101173.58
2018-09-18T01:06:13.187Z,101174.11
2018-09-18T01:06:24.938Z,101175.03
2018-09-18T01:06:36.688Z,101176.34
2018-09-18T01:06:48.444Z,101175.42
2018-09-18T01:07:00.185Z,101174.50
2018-09-18T01:07:11.959Z,101172.66
2018-09-18T01:07:23.846Z,101173.97
2018-09-18T01:07:35.726Z,101173.20
2018-09-18T01:07:47.478Z,101171.89
2018-09-18T01:07:59.230Z,101171.89
2018-09-18T01:08:10.977Z,101174.50
2018-09-18T01:08:22.758Z,101171.89
2018-09-18T01:08:34.507Z,101174.11
2018-09-18T01:08:46.267Z,101169.28
2018-09-18T01:08:58.032Z,101175.03
2018-09-18T01:09:10.603Z,101176.34
2018-09-18T01:09:22.366Z,101172.81
2018-09-18T01:09:34.131Z,101175.80
2018-09-18T01:09:45.890Z,101170.97
2018-09-18T01:09:57.638Z,101167.83
2018-09-18T01:10:09.414Z,101174.89
2018-09-18T01:10:21.170Z,101169.52
2018-09-18T01:10:32.933Z,101167.05
2018-09-18T01:10:44.749Z,101170.97
2018-09-18T01:10:56.503Z,101171.36
2018-09-18T01:11:08.243Z,101167.44
2018-09-18T01:11:20.054Z,101169.66
2018-09-18T01:11:31.820Z,101169.66
2018-09-18T01:11:43.554Z,101170.05
2018-09-18T01:11:55.311Z,101171.89
2018-09-18T01:12:07.070Z,101170.05
2018-09-18T01:12:18.833Z,101168.36
2018-09-18T01:12:30.586Z,101170.58
2018-09-18T01:12:42.337Z,101170.58
2018-09-18T01:12:54.087Z,101167.44
2018-09-18T01:13:05.839Z,101172.66
2018-09-18T01:13:17.610Z,101170.05
2018-09-18T01:13:29.355Z,101172.27
2018-09-18T01:13:41.120Z,101170.97
2018-09-18T01:13:52.892Z,101170.97
2018-09-18T01:14:04.648Z,101171.36
2018-09-18T01:14:16.395Z,101170.05
2018-09-18T01:14:28.155Z,101166.52
2018-09-18T01:14:39.916Z,101172.66
2018-09-18T01:14:51.697Z,101172.27
2018-09-18T01:15:03.444Z,101176.19
2018-09-18T01:15:15.222Z,101171.74
2018-09-18T01:15:26.992Z,101170.05
2018-09-18T01:15:38.752Z,101166.13
2018-09-18T01:15:50.507Z,101169.66
2018-09-18T01:16:02.270Z,101168.36
2018-09-18T01:16:14.031Z,101172.27
2018-09-18T01:16:25.788Z,101173.58
2018-09-18T01:16:37.835Z,101170.97
2018-09-18T01:16:49.602Z,101174.50
2018-09-18T01:17:01.334Z,101171.36
2018-09-18T01:17:13.169Z,101168.21
2018-09-18T01:17:24.906Z,101172.13
2018-09-18T01:17:36.679Z,101174.89
2018-09-18T01:17:48.592Z,101176.19
2018-09-18T01:18:00.358Z,101172.66
2018-09-18T01:18:12.111Z,101177.11
2018-09-18T01:18:27.808Z,101170.97
2018-09-18T01:18:40.821Z,101172.27
2018-09-18T01:18:52.566Z,101176.19
2018-09-18T01:19:04.313Z,101174.89
2018-09-18T01:19:16.057Z,101176.19
2018-09-18T01:19:27.811Z,101171.36
2018-09-18T01:19:39.570Z,101170.05
2018-09-18T01:19:51.342Z,101176.72
2018-09-18T01:20:03.089Z,101164.44
2018-09-18T01:20:14.868Z,101179.72
2018-09-18T01:20:26.651Z,101174.11
2018-09-18T01:20:38.412Z,101174.11
2018-09-18T01:20:50.159Z,101170.58
2018-09-18T01:21:01.932Z,101168.89
2018-09-18T01:21:13.690Z,101170.58
2018-09-18T01:21:25.449Z,101174.89
2018-09-18T01:21:37.191Z,101167.83
2018-09-18T01:21:48.929Z,101168.36
2018-09-18T01:22:00.678Z,101173.58
2018-09-18T01:22:12.433Z,101172.27
2018-09-18T01:22:24.193Z,101170.82
2018-09-18T01:22:35.949Z,101167.44
2018-09-18T01:22:47.704Z,101170.97
2018-09-18T01:22:59.474Z,101168.75
2018-09-18T01:23:11.241Z,101172.66
2018-09-18T01:23:22.981Z,101167.44
2018-09-18T01:23:34.914Z,101173.58
2018-09-18T01:23:46.658Z,101167.83
2018-09-18T01:23:58.411Z,101170.58
2018-09-18T01:24:10.164Z,101170.05
2018-09-18T01:24:21.902Z,101169.66
2018-09-18T01:24:33.641Z,101171.36
2018-09-18T01:24:45.403Z,101170.05
2018-09-18T01:24:57.153Z,101169.13
2018-09-18T01:25:08.918Z,101171.36
2018-09-18T01:25:20.688Z,101173.05
2018-09-18T01:25:32.714Z,101174.50
2018-09-18T01:25:44.471Z,101169.13
2018-09-18T01:25:56.218Z,101175.27
2018-09-18T01:26:08.108Z,101176.58
2018-09-18T01:26:19.868Z,101168.75
2018-09-18T01:26:31.623Z,101166.13
2018-09-18T01:26:43.367Z,101175.80
2018-09-18T01:26:55.103Z,101170.44
2018-09-18T01:27:06.848Z,101170.44
2018-09-18T01:27:18.594Z,101171.36
2018-09-18T01:27:30.329Z,101168.75
2018-09-18T01:27:42.082Z,101164.30
2018-09-18T01:27:53.824Z,101172.52
2018-09-18T01:28:05.584Z,101170.44
2018-09-18T01:28:17.336Z,101170.82
2018-09-18T01:28:29.105Z,101169.13
2018-09-18T01:28:40.846Z,101169.13
2018-09-18T01:28:52.598Z,101174.35
2018-09-18T01:29:04.351Z,101173.97
2018-09-18T01:29:16.108Z,101162.07
2018-09-18T01:29:27.860Z,101163.91
2018-09-18T01:29:39.614Z,101171.36
2018-09-18T01:29:51.366Z,101170.44
2018-09-18T01:30:03.113Z,101172.66
2018-09-18T01:30:14.883Z,101173.05
2018-09-18T01:30:26.631Z,101166.13
2018-09-18T01:30:38.411Z,101168.36
2018-09-18T01:30:50.163Z,101168.36
2018-09-18T01:31:01.931Z,101167.97
2018-09-18T01:31:13.693Z,101169.66
2018-09-18T01:31:25.441Z,101168.36
2018-09-18T01:31:37.186Z,101170.97
2018-09-18T01:31:48.947Z,101168.36
2018-09-18T01:32:00.706Z,101168.36
2018-09-18T01:32:12.459Z,101167.97
2018-09-18T01:32:24.311Z,101168.36
2018-09-18T01:32:36.064Z,101165.75
2018-09-18T01:32:47.824Z,101158.69
2018-09-18T01:32:59.567Z,101166.13
2018-09-18T01:33:11.323Z,101166.66
2018-09-18T01:33:23.068Z,101164.83
2018-09-18T01:33:35.286Z,101160.91
2018-09-18T01:33:47.040Z,101166.13
2018-09-18T01:33:58.777Z,101163.52
2018-09-18T01:34:10.536Z,101161.69
2018-09-18T01:34:22.295Z,101164.83
2018-09-18T01:34:34.170Z,101160.38
2018-09-18T01:34:45.920Z,101164.83
2018-09-18T01:34:57.819Z,101162.98
2018-09-18T01:35:09.577Z,101165.22
2018-09-18T01:35:21.362Z,101170.97
2018-09-18T01:35:33.096Z,101166.13
2018-09-18T01:35:44.898Z,101160.91
2018-09-18T01:35:56.680Z,101167.44
2018-09-18T01:36:08.426Z,101160.38
2018-09-18T01:36:20.204Z,101158.69
2018-09-18T01:36:31.955Z,101161.83
2018-09-18T01:36:43.723Z,101163.38
2018-09-18T01:36:55.458Z,101162.22
2018-09-18T01:37:07.204Z,101160.52
2018-09-18T01:37:18.948Z,101159.22
2018-09-18T01:37:30.711Z,101163.13
2018-09-18T01:37:42.477Z,101158.69
2018-09-18T01:37:54.228Z,101159.07
2018-09-18T01:38:05.981Z,101160.38
2018-09-18T01:38:17.730Z,101162.07
2018-09-18T01:38:29.475Z,101163.52
2018-09-18T01:38:41.233Z,101159.98
2018-09-18T01:38:52.982Z,101158.69
2018-09-18T01:39:04.730Z,101161.69
2018-09-18T01:39:16.483Z,101157.38
2018-09-18T01:39:28.239Z,101157.38
2018-09-18T01:39:39.978Z,101159.60
2018-09-18T01:39:51.730Z,101163.91
2018-09-18T01:40:03.475Z,101158.30
2018-09-18T01:40:15.213Z,101161.30
2018-09-18T01:40:26.959Z,101157.38
2018-09-18T01:40:38.703Z,101156.99
2018-09-18T01:40:50.607Z,101162.60
2018-09-18T01:41:02.365Z,101157.77
2018-09-18T01:41:14.116Z,101159.07
2018-09-18T01:41:25.862Z,101157.38
2018-09-18T01:41:37.616Z,101161.69
2018-09-18T01:41:49.354Z,101162.98
2018-09-18T01:42:01.245Z,101159.98
2018-09-18T01:42:12.997Z,101155.92
2018-09-18T01:42:24.752Z,101159.45
2018-09-18T01:42:36.516Z,101163.91
2018-09-18T01:42:48.267Z,101156.46
2018-09-18T01:43:00.014Z,101162.22
2018-09-18T01:43:11.762Z,101162.07
2018-09-18T01:43:23.531Z,101163.38
2018-09-18T01:43:35.281Z,101161.15
2018-09-18T01:43:47.239Z,101164.30
2018-09-18T01:43:58.911Z,101161.69
2018-09-18T01:44:10.657Z,101162.60
2018-09-18T01:44:22.412Z,101164.30
2018-09-18T01:44:34.158Z,101156.84
2018-09-18T01:44:45.918Z,101162.22
2018-09-18T01:44:57.670Z,101159.84
2018-09-18T01:45:09.413Z,101154.63
2018-09-18T01:45:21.180Z,101156.31
2018-09-18T01:45:32.960Z,101153.70
2018-09-18T01:45:44.710Z,101159.31
2018-09-18T01:45:56.482Z,101155.92
2018-09-18T01:46:08.228Z,101158.54
2018-09-18T01:46:19.976Z,101158.54
2018-09-18T01:46:31.732Z,101153.84
2018-09-18T01:46:43.493Z,101155.92
2018-09-18T01:46:55.247Z,101156.70
2018-09-18T01:47:06.996Z,101155.01
2018-09-18T01:47:18.759Z,101157.62
2018-09-18T01:47:30.520Z,101155.92
2018-09-18T01:47:42.272Z,101156.84
2018-09-18T01:47:54.022Z,101157.62
2018-09-18T01:48:05.773Z,101154.63
2018-09-18T01:48:17.515Z,101157.62
2018-09-18T01:48:29.281Z,101151.09
2018-09-18T01:48:41.080Z,101153.70
2018-09-18T01:48:52.836Z,101154.23
2018-09-18T01:49:04.946Z,101155.92
2018-09-18T01:49:16.686Z,101159.45
2018-09-18T01:49:28.435Z,101157.77
2018-09-18T01:49:40.199Z,101152.40
2018-09-18T01:49:51.970Z,101153.84
2018-09-18T01:50:03.712Z,101155.55
2018-09-18T01:50:15.455Z,101151.48
2018-09-18T01:50:27.197Z,101150.70
2018-09-18T01:50:38.955Z,101155.92
2018-09-18T01:50:50.709Z,101154.63
2018-09-18T01:51:02.827Z,101149.78
2018-09-18T01:51:14.591Z,101152.02
2018-09-18T01:51:26.333Z,101155.92
2018-09-18T01:51:38.092Z,101151.63
2018-09-18T01:51:49.847Z,101150.70
2018-09-18T01:52:01.586Z,101152.93
2018-09-18T01:52:13.392Z,101148.87
2018-09-18T01:52:25.147Z,101150.70
2018-09-18T01:52:36.893Z,101150.70
2018-09-18T01:52:48.647Z,101148.48
2018-09-18T01:53:00.399Z,101150.70
2018-09-18T01:53:12.146Z,101145.48
2018-09-18T01:53:23.902Z,101146.40
2018-09-18T01:53:35.643Z,101152.40
2018-09-18T01:53:47.394Z,101145.48
2018-09-18T01:53:59.137Z,101149.02
2018-09-18T01:54:10.887Z,101147.31
2018-09-18T01:54:22.682Z,101147.17
2018-09-18T01:54:34.436Z,101149.40
2018-09-18T01:54:46.207Z,101151.63
2018-09-18T01:54:57.964Z,101151.48
2018-09-18T01:55:09.723Z,101148.48
2018-09-18T01:55:21.468Z,101145.33
2018-09-18T01:55:33.234Z,101147.56
2018-09-18T01:55:44.993Z,101147.56
2018-09-18T01:55:56.752Z,101152.93
2018-09-18T01:56:08.520Z,101148.48
2018-09-18T01:56:20.279Z,101151.09
2018-09-18T01:56:32.045Z,101148.09
2018-09-18T01:56:43.782Z,101149.93
2018-09-18T01:56:55.535Z,101149.02
2018-09-18T01:57:07.700Z,101154.23
2018-09-18T01:57:19.480Z,101152.93
2018-09-18T01:57:31.221Z,101147.70
2018-09-18T01:57:42.975Z,101146.78
2018-09-18T01:57:54.722Z,101150.70
2018-09-18T01:58:06.479Z,101146.78
2018-09-18T01:58:18.228Z,101144.95
2018-09-18T01:58:29.971Z,101144.17
2018-09-18T01:58:41.724Z,101150.70
2018-09-18T01:58:53.466Z,101146.78
2018-09-18T01:59:05.228Z,101146.78
2018-09-18T01:59:16.969Z,101150.17
2018-09-18T01:59:28.728Z,101148.87
2018-09-18T01:59:40.478Z,101148.87
2018-09-18T01:59:52.454Z,101151.48
2018-09-18T02:00:04.195Z,101147.56
2018-09-18T02:00:15.939Z,101143.64
2018-09-18T02:00:27.685Z,101150.17
2018-09-18T02:00:39.453Z,101150.95
2018-09-18T02:00:51.205Z,101146.64
2018-09-18T02:01:02.955Z,101154.09
2018-09-18T02:01:14.732Z,101142.72
2018-09-18T02:01:26.520Z,101145.33
2018-09-18T02:01:38.287Z,101148.87
2018-09-18T02:01:50.042Z,101148.48
2018-09-18T02:02:01.799Z,101145.72
2018-09-18T02:02:13.541Z,101146.64
2018-09-18T02:02:25.296Z,101149.25
2018-09-18T02:02:37.045Z,101150.56
2018-09-18T02:02:48.795Z,101146.64
2018-09-18T02:03:00.531Z,101147.03
2018-09-18T02:03:12.287Z,101145.33
2018-09-18T02:03:24.019Z,101151.86
2018-09-18T02:03:35.771Z,101142.72
2018-09-18T02:03:47.528Z,101147.95
2018-09-18T02:03:59.300Z,101145.33
2018-09-18T02:04:11.048Z,101147.56
2018-09-18T02:04:22.929Z,101145.33
2018-09-18T02:04:34.672Z,101145.87
2018-09-18T02:04:46.450Z,101146.40
2018-09-18T02:04:58.203Z,101146.40
2018-09-18T02:05:09.956Z,101148.48
2018-09-18T02:05:21.705Z,101148.48
2018-09-18T02:05:33.474Z,101153.70
2018-09-18T02:05:45.223Z,101148.09
2018-09-18T02:05:56.968Z,101146.64
2018-09-18T02:06:08.735Z,101149.78
2018-09-18T02:06:20.610Z,101147.56
2018-09-18T02:06:32.358Z,101152.40
2018-09-18T02:06:44.107Z,101146.78
2018-09-18T02:09:19.862Z,101144.41
2018-09-18T02:09:48.204Z,101147.03
2018-09-18T02:10:05.327Z,101146.64
2018-09-18T02:10:17.088Z,101142.72
2018-09-18T02:10:28.843Z,101144.41
2018-09-18T02:10:40.614Z,101142.58
2018-09-18T02:10:52.375Z,101147.41
2018-09-18T02:11:04.129Z,101144.03
2018-09-18T02:11:15.887Z,101146.25
2018-09-18T02:11:27.652Z,101145.72
2018-09-18T02:11:39.414Z,101142.72
2018-09-18T02:11:51.171Z,101147.56
2018-09-18T02:12:02.928Z,101144.95
2018-09-18T02:12:14.685Z,101147.56
2018-09-18T02:12:26.448Z,101146.25
2018-09-18T02:12:38.187Z,101140.64
2018-09-18T02:12:49.940Z,101140.50
2018-09-18T02:13:01.700Z,101148.87
2018-09-18T02:13:13.493Z,101140.89
2018-09-18T02:13:25.263Z,101146.25
2018-09-18T02:13:37.018Z,101142.72
2018-09-18T02:13:48.791Z,101142.34
2018-09-18T02:14:00.543Z,101144.41
2018-09-18T02:14:12.294Z,101141.80
2018-09-18T02:14:24.051Z,101145.33
2018-09-18T02:14:35.820Z,101139.73
2018-09-18T02:14:47.569Z,101144.03
2018-09-18T02:14:59.326Z,101140.50
2018-09-18T02:15:11.078Z,101140.50
2018-09-18T02:15:22.823Z,101143.26
2018-09-18T02:15:34.570Z,101142.72
2018-09-18T02:15:46.319Z,101138.81
2018-09-18T02:15:58.076Z,101142.48
2018-09-18T02:16:09.843Z,101142.34
2018-09-18T02:16:21.597Z,101141.80
2018-09-18T02:16:33.376Z,101139.58
2018-09-18T02:16:45.128Z,101140.11
2018-09-18T02:16:56.880Z,101139.73
2018-09-18T02:17:08.625Z,101141.42